Time;durP1;ratioP1;P1;durP2;ratioP2;P2;SDS_P1;SDS_P2;PMS_P1;PMS_P2;Temp;Humidity;BMP_temperature;BMP_pressure;BME280_temperature;BME280_humidity;BME280_pressure;Samples;Min_cycle;Max_cycle;Signal;HPM_P1;HPM_P2
2023/02/14 00:01:32;;;;;;;;;;;;;;;2.17;100.00;100620.03;4996411;28;19952;-59
2023/02/14 00:03:59;;;;;;;;;;;;;;;2.19;100.00;100619.34;4997595;28;19975;-59
2023/02/14 00:06:25;;;;;;;;;;;;;;;2.08;100.00;100615.41;4996652;28;20362;-61
2023/02/14 00:08:52;;;;;;;;;;;;;;;1.95;100.00;100619.88;5000809;28;19950;-59
2023/02/14 00:11:18;;;;;;;;;;;;;;;1.86;100.00;100614.38;5000660;28;20823;-58
2023/02/14 00:15:20;;;;;;;;;;;;;;;1.72;100.00;100611.19;5001705;28;19976;-59
2023/02/14 00:16:29;;;;;;;;;;;;;;;1.93;100.00;100612.19;5002100;28;19944;-60
2023/02/14 00:19:04;;;;;;;;;;;;;;;2.14;100.00;100597.13;5001769;28;20489;-61
2023/02/14 00:21:38;;;;;;;;;;;;;;;2.22;100.00;100600.88;5002036;28;20569;-60
2023/02/14 00:24:05;;;;;;;;;;;;;;;2.36;100.00;100599.84;4998958;28;19943;-60
2023/02/14 00:26:31;;;;;;;;;;;;;;;2.44;100.00;100597.66;5001544;28;20053;-60
2023/02/14 00:28:56;;;;;;;;;;;;;;;2.47;100.00;100593.59;4994260;28;19947;-59
2023/02/14 00:31:22;;;;;;;;;;;;;;;2.34;100.00;100600.56;4985357;28;19966;-60
2023/02/14 00:33:48;;;;;;;;;;;;;;;2.10;100.00;100600.31;5000861;28;20454;-59
2023/02/14 00:36:13;;;;;;;;;;;;;;;1.97;100.00;100600.56;4999865;28;20810;-59
2023/02/14 00:38:38;;;;;;;;;;;;;;;1.77;100.00;100612.28;5001914;28;19947;-60
2023/02/14 00:41:06;;;;;;;;;;;;;;;1.67;100.00;100613.47;5013858;28;19944;-60
2023/02/14 00:43:31;;;;;;;;;;;;;;;1.49;100.00;100619.28;4999222;28;19972;-60
2023/02/14 00:45:57;;;;;;;;;;;;;;;1.29;100.00;100615.78;5028829;28;20033;-60
2023/02/14 00:48:22;;;;;;;;;;;;;;;1.14;100.00;100620.97;4998469;28;19959;-61
2023/02/14 00:50:48;;;;;;;;;;;;;;;1.03;100.00;100614.50;5001182;28;20057;-61
2023/02/14 00:53:13;;;;;;;;;;;;;;;0.97;100.00;100613.34;4998927;28;20420;-59
2023/02/14 00:55:39;;;;;;;;;;;;;;;0.96;100.00;100614.13;5000727;28;20000;-60
2023/02/14 00:58:04;;;;;;;;;;;;;;;1.20;100.00;100621.25;5002344;28;20043;-60
2023/02/14 01:00:30;;;;;;;;;;;;;;;1.18;100.00;100611.88;4997713;28;20070;-59
2023/02/14 01:02:55;;;;;;;;;;;;;;;1.16;100.00;100621.03;4996442;28;19947;-59
2023/02/14 01:05:21;;;;;;;;;;;;;;;1.04;100.00;100616.25;5000401;28;20383;-60
2023/02/14 01:07:46;;;;;;;;;;;;;;;1.12;100.00;100612.44;5002217;28;20001;-60
2023/02/14 01:10:11;;;;;;;;;;;;;;;1.27;100.00;100612.34;4999919;28;20380;-60
2023/02/14 01:12:37;;;;;;;;;;;;;;;1.47;100.00;100608.25;4998504;28;19967;-59
2023/02/14 01:15:02;;;;;;;;;;;;;;;1.69;100.00;100609.38;5002541;28;20603;-59
2023/02/14 01:17:28;;;;;;;;;;;;;;;1.81;100.00;100599.84;4998406;28;20460;-60
2023/02/14 01:19:53;;;;;;;;;;;;;;;1.92;100.00;100607.06;4996557;28;19964;-59
2023/02/14 01:22:19;;;;;;;;;;;;;;;2.00;100.00;100593.97;5030361;28;19966;-59
2023/02/14 01:24:44;;;;;;;;;;;;;;;2.14;100.00;100597.13;4999348;28;20001;-59
2023/02/14 01:27:10;;;;;;;;;;;;;;;2.16;100.00;100590.50;4999666;28;19950;-60
2023/02/14 01:29:35;;;;;;;;;;;;;;;2.21;100.00;100581.44;5031658;28;20070;-59
2023/02/14 01:32:00;;;;;;;;;;;;;;;2.42;100.00;100590.00;4993221;28;20001;-60
2023/02/14 01:34:26;;;;;;;;;;;;;;;2.45;100.00;100582.56;5000326;28;19987;-59
2023/02/14 01:36:51;;;;;;;;;;;;;;;2.46;100.00;100576.66;4998993;28;19944;-60
2023/02/14 01:39:17;;;;;;;;;;;;;;;2.56;100.00;100585.56;5000933;28;19967;-60
2023/02/14 01:41:47;;;;;;;;;;;;;;;2.56;100.00;100576.28;5000478;28;19970;-61
2023/02/14 01:44:14;;;;;;;;;;;;;;;2.62;100.00;100579.09;4997683;28;20063;-60
2023/02/14 01:46:41;;;;;;;;;;;;;;;2.64;100.00;100579.16;4995816;28;20482;-59
2023/02/14 01:49:07;;;;;;;;;;;;;;;2.72;100.00;100578.69;5030714;28;20343;-59
2023/02/14 01:51:35;;;;;;;;;;;;;;;2.72;100.00;100576.16;5009436;28;19942;-60
2023/02/14 01:54:01;;;;;;;;;;;;;;;2.80;100.00;100573.09;4998202;28;19955;-58
2023/02/14 01:56:30;;;;;;;;;;;;;;;2.80;100.00;100562.97;4998511;28;20433;-59
2023/02/14 01:58:58;;;;;;;;;;;;;;;2.88;100.00;100559.09;4999298;28;19951;-59
2023/02/14 02:01:25;;;;;;;;;;;;;;;2.88;100.00;100561.63;5000070;28;20281;-61
2023/02/14 02:03:56;;;;;;;;;;;;;;;2.98;100.00;100563.72;5008704;28;20481;-59
2023/02/14 02:06:32;;;;;;;;;;;;;;;2.98;100.00;100563.72;4998180;28;20041;-60
2023/02/14 02:09:16;;;;;;;;;;;;;;;3.05;100.00;100558.16;4999988;28;19942;-60
2023/02/14 02:11:42;;;;;;;;;;;;;;;3.08;100.00;100543.06;4997464;28;20048;-60
2023/02/14 02:14:12;;;;;;;;;;;;;;;3.15;100.00;100545.03;4995102;28;20073;-60
2023/02/14 02:16:41;;;;;;;;;;;;;;;3.25;100.00;100549.69;4996725;28;19940;-59
2023/02/14 02:19:36;;;;;;;;;;;;;;;3.26;100.00;100537.88;4998980;28;19925;-60
2023/02/14 02:22:17;;;;;;;;;;;;;;;3.23;100.00;100541.13;4983204;28;20615;-59
2023/02/14 02:25:03;;;;;;;;;;;;;;;3.28;100.00;100534.59;4967610;28;19952;-60
2023/02/14 02:27:38;;;;;;;;;;;;;;;3.29;100.00;100535.47;4983226;28;19938;-58
2023/02/14 02:30:04;;;;;;;;;;;;;;;3.31;100.00;100537.25;4984001;28;20073;-60
2023/02/14 02:32:47;;;;;;;;;;;;;;;3.36;100.00;100532.38;4998107;28;20313;-60
2023/02/14 02:35:31;;;;;;;;;;;;;;;3.40;100.00;100524.06;4981432;28;19951;-60
2023/02/14 02:38:00;;;;;;;;;;;;;;;3.44;100.00;100521.72;4983612;28;20390;-60
2023/02/14 02:40:35;;;;;;;;;;;;;;;3.48;100.00;100523.56;4983040;28;20517;-60
2023/02/14 02:43:00;;;;;;;;;;;;;;;3.50;100.00;100516.91;4995819;28;20401;-61
2023/02/14 02:48:39;;;;;;;;;;;;;;;3.52;100.00;100524.59;4983211;28;19960;-60
2023/02/14 02:54:04;;;;;;;;;;;;;;;3.66;100.00;100516.69;4968754;28;20377;-60
2023/02/14 02:56:44;;;;;;;;;;;;;;;3.75;100.00;100512.78;4979099;28;19961;-59
2023/02/14 02:59:19;;;;;;;;;;;;;;;3.73;100.00;100514.41;4990646;28;19983;-58
2023/02/14 03:02:02;;;;;;;;;;;;;;;3.76;100.00;100509.44;5009758;28;19932;-59
2023/02/14 03:09:57;;;;;;;;;;;;;;;3.76;100.00;100514.53;5012774;28;20372;-60
2023/02/14 03:12:32;;;;;;;;;;;;;;;3.75;100.00;100513.66;5012038;28;20680;-60
2023/02/14 03:15:12;;;;;;;;;;;;;;;3.81;100.00;100508.81;4999023;28;19943;-59
2023/02/14 03:17:40;;;;;;;;;;;;;;;3.71;100.00;100509.28;5020876;28;19952;-60
2023/02/14 03:20:15;;;;;;;;;;;;;;;3.63;100.00;100506.44;5004749;28;19989;-58
2023/02/14 03:22:56;;;;;;;;;;;;;;;3.55;100.00;100501.88;5001498;28;20399;-57
2023/02/14 03:25:21;;;;;;;;;;;;;;;3.54;100.00;100502.69;4998618;28;19940;-58
2023/02/14 03:28:10;;;;;;;;;;;;;;;3.49;100.00;100499.97;5028713;28;19948;-60
2023/02/14 03:30:40;;;;;;;;;;;;;;;3.51;100.00;100495.84;4992170;28;19953;-60
2023/02/14 03:33:11;;;;;;;;;;;;;;;3.57;100.00;100495.19;5028531;28;19966;-59
2023/02/14 03:35:50;;;;;;;;;;;;;;;3.50;100.00;100495.75;5030782;28;19968;-59
2023/02/14 03:38:35;;;;;;;;;;;;;;;3.63;100.00;100496.31;5007000;28;19954;-59
2023/02/14 03:41:03;;;;;;;;;;;;;;;3.60;100.00;100498.72;4997911;28;19940;-57
2023/02/14 03:43:29;;;;;;;;;;;;;;;3.48;100.00;100495.69;5011021;28;20068;-58
2023/02/14 03:45:58;;;;;;;;;;;;;;;3.16;100.00;100494.44;5001638;28;19966;-59
2023/02/14 03:48:25;;;;;;;;;;;;;;;2.87;100.00;100488.97;5002285;28;20048;-59
2023/02/14 03:50:52;;;;;;;;;;;;;;;2.80;100.00;100492.06;4998699;28;20443;-59
2023/02/14 03:53:20;;;;;;;;;;;;;;;2.75;100.00;100486.81;4998707;28;20500;-59
2023/02/14 03:56:00;;;;;;;;;;;;;;;2.74;100.00;100483.41;4999633;28;19949;-59
2023/02/14 03:58:29;;;;;;;;;;;;;;;2.80;100.00;100477.72;5000728;28;19962;-57
2023/02/14 04:00:58;;;;;;;;;;;;;;;2.80;100.00;100471.81;4999472;28;19942;-57
2023/02/14 04:03:24;;;;;;;;;;;;;;;2.81;100.00;100473.50;5003242;28;19945;-57
2023/02/14 04:05:51;;;;;;;;;;;;;;;2.86;100.00;100467.84;5002236;28;19974;-58
2023/02/14 04:08:23;;;;;;;;;;;;;;;2.91;100.00;100473.97;5004018;28;19970;-60
2023/02/14 04:10:50;;;;;;;;;;;;;;;2.80;100.00;100469.28;5001905;28;19995;-58
2023/02/14 04:13:18;;;;;;;;;;;;;;;2.79;100.00;100470.06;4998166;28;20015;-59
2023/02/14 04:15:44;;;;;;;;;;;;;;;2.79;100.00;100459.94;5001957;28;20013;-59
2023/02/14 04:20:53;;;;;;;;;;;;;;;2.39;100.00;100460.78;5002817;28;19948;-58
2023/02/14 04:23:19;;;;;;;;;;;;;;;2.33;100.00;100459.69;5000140;28;20422;-58
2023/02/14 04:25:44;;;;;;;;;;;;;;;2.08;100.00;100460.28;5001879;28;20400;-60
2023/02/14 04:28:10;;;;;;;;;;;;;;;1.98;100.00;100458.13;5000300;28;20489;-58
2023/02/14 04:30:36;;;;;;;;;;;;;;;1.92;100.00;100462.91;4997582;28;19971;-59
2023/02/14 04:33:02;;;;;;;;;;;;;;;2.02;100.00;100454.94;4998548;28;19961;-59
2023/02/14 04:35:28;;;;;;;;;;;;;;;2.05;100.00;100450.88;5000308;28;20094;-63
2023/02/14 04:37:53;;;;;;;;;;;;;;;1.97;100.00;100443.75;4998315;28;19953;-58
2023/02/14 04:40:19;;;;;;;;;;;;;;;1.91;100.00;100448.56;4998016;28;19955;-58
2023/02/14 04:42:45;;;;;;;;;;;;;;;1.68;100.00;100450.91;4997871;28;20454;-59
2023/02/14 04:45:10;;;;;;;;;;;;;;;1.47;100.00;100454.09;4998200;28;19942;-59
2023/02/14 04:47:36;;;;;;;;;;;;;;;1.27;100.00;100446.44;5001632;28;20504;-58
2023/02/14 04:50:02;;;;;;;;;;;;;;;1.25;100.00;100452.25;5000230;28;19946;-59
2023/02/14 04:52:27;;;;;;;;;;;;;;;0.91;100.00;100449.75;5028745;28;19947;-58
2023/02/14 04:54:53;;;;;;;;;;;;;;;0.93;100.00;100444.81;4998436;28;19947;-58
2023/02/14 04:57:18;;;;;;;;;;;;;;;1.01;100.00;100446.03;5016042;28;19999;-58
2023/02/14 04:59:44;;;;;;;;;;;;;;;0.90;100.00;100451.41;5001537;28;20318;-58
2023/02/14 05:02:09;;;;;;;;;;;;;;;0.78;100.00;100448.31;5000720;28;19944;-58
2023/02/14 05:04:34;;;;;;;;;;;;;;;0.70;100.00;100443.69;5000703;28;20071;-58
2023/02/14 05:07:00;;;;;;;;;;;;;;;0.58;100.00;100455.69;5000125;28;19926;-58
2023/02/14 05:09:26;;;;;;;;;;;;;;;0.47;100.00;100457.66;4996978;28;19987;-58
2023/02/14 05:11:51;;;;;;;;;;;;;;;0.43;100.00;100459.16;4999236;28;19941;-58
2023/02/14 05:14:17;;;;;;;;;;;;;;;0.30;100.00;100450.91;4997205;28;19992;-59
2023/02/14 05:16:42;;;;;;;;;;;;;;;0.42;100.00;100465.00;5000228;28;20020;-58
2023/02/14 05:19:08;;;;;;;;;;;;;;;0.37;100.00;100463.06;5003045;28;19978;-58
2023/02/14 05:21:33;;;;;;;;;;;;;;;0.35;100.00;100457.91;4998968;28;20150;-60
2023/02/14 05:23:59;;;;;;;;;;;;;;;0.27;100.00;100466.75;4999965;28;19944;-57
2023/02/14 05:26:25;;;;;;;;;;;;;;;0.18;100.00;100466.28;5000374;28;19988;-58
2023/02/14 05:28:50;;;;;;;;;;;;;;;0.08;100.00;100463.22;4999929;28;19948;-59
2023/02/14 05:31:16;;;;;;;;;;;;;;;0.03;100.00;100455.41;4999143;28;19957;-57
2023/02/14 05:33:41;;;;;;;;;;;;;;;0.03;100.00;100454.53;4995182;28;20355;-58
2023/02/14 05:36:07;;;;;;;;;;;;;;;0.00;100.00;100456.09;4999693;28;19978;-58
2023/02/14 05:38:33;;;;;;;;;;;;;;;0.14;100.00;100458.47;5000154;28;20052;-58
2023/02/14 05:40:59;;;;;;;;;;;;;;;0.10;100.00;100452.41;4998892;28;20571;-59
2023/02/14 05:43:25;;;;;;;;;;;;;;;0.12;100.00;100467.63;4996256;28;19978;-58
2023/02/14 05:45:50;;;;;;;;;;;;;;;0.14;100.00;100461.00;4999924;28;19947;-59
2023/02/14 05:48:16;;;;;;;;;;;;;;;0.08;100.00;100460.69;4998789;28;19983;-58
2023/02/14 05:50:41;;;;;;;;;;;;;;;0.06;100.00;100463.13;4999511;28;19968;-59
2023/02/14 05:53:08;;;;;;;;;;;;;;;0.02;100.00;100460.38;5015432;28;20438;-58
2023/02/14 05:55:34;;;;;;;;;;;;;;;-0.05;100.00;100457.53;4997791;28;19942;-59
2023/02/14 05:57:59;;;;;;;;;;;;;;;-0.08;100.00;100459.88;4998123;28;19992;-57
2023/02/14 06:00:25;;;;;;;;;;;;;;;-0.08;100.00;100457.38;4997434;28;19952;-60
2023/02/14 06:02:50;;;;;;;;;;;;;;;-0.14;100.00;100463.75;4996470;28;19948;-61
2023/02/14 06:05:17;;;;;;;;;;;;;;;-0.16;100.00;100466.19;4996803;28;19994;-61
2023/02/14 06:07:47;;;;;;;;;;;;;;;-0.19;100.00;100465.16;5013802;28;19949;-61
2023/02/14 06:10:13;;;;;;;;;;;;;;;-0.16;100.00;100470.34;4998769;28;20296;-62
2023/02/14 06:12:38;;;;;;;;;;;;;;;-0.13;100.00;100473.88;4998495;28;20006;-61
2023/02/14 06:15:04;;;;;;;;;;;;;;;-0.17;100.00;100477.03;4995833;28;19940;-61
2023/02/14 06:17:30;;;;;;;;;;;;;;;-0.18;100.00;100472.81;4996338;28;20050;-59
2023/02/14 06:19:55;;;;;;;;;;;;;;;-0.19;100.00;100475.22;4996911;28;19930;-57
2023/02/14 06:22:21;;;;;;;;;;;;;;;-0.13;100.00;100475.56;5027952;28;19940;-60
2023/02/14 06:24:46;;;;;;;;;;;;;;;-0.12;100.00;100470.59;4995463;28;20206;-59
2023/02/14 06:27:12;;;;;;;;;;;;;;;-0.01;100.00;100474.56;4996175;28;20312;-60
2023/02/14 06:29:37;;;;;;;;;;;;;;;0.07;100.00;100474.09;4995386;28;20367;-59
2023/02/14 06:32:05;;;;;;;;;;;;;;;0.21;100.00;100480.72;4994661;28;20012;-60
2023/02/14 06:34:32;;;;;;;;;;;;;;;0.21;100.00;100474.00;4996725;28;19945;-60
2023/02/14 06:36:58;;;;;;;;;;;;;;;0.28;100.00;100477.72;4994614;28;20039;-59
2023/02/14 06:39:23;;;;;;;;;;;;;;;0.34;100.00;100483.09;4994885;28;19997;-59
2023/02/14 06:41:48;;;;;;;;;;;;;;;0.43;100.00;100491.09;4993794;28;20451;-60
2023/02/14 06:44:14;;;;;;;;;;;;;;;0.48;100.00;100487.16;4995450;28;19965;-60
2023/02/14 06:46:39;;;;;;;;;;;;;;;0.55;100.00;100495.91;4996466;28;20399;-59
2023/02/14 06:49:04;;;;;;;;;;;;;;;0.62;100.00;100488.72;4997057;28;19988;-59
2023/02/14 06:51:30;;;;;;;;;;;;;;;0.64;100.00;100491.31;4993514;28;19940;-59
2023/02/14 06:53:55;;;;;;;;;;;;;;;0.74;100.00;100494.38;4994740;28;20000;-59
2023/02/14 06:56:21;;;;;;;;;;;;;;;0.84;100.00;100483.09;4996599;28;19959;-60
2023/02/14 06:58:46;;;;;;;;;;;;;;;0.90;100.00;100486.78;4995404;28;20347;-60
2023/02/14 07:01:12;;;;;;;;;;;;;;;1.02;100.00;100480.59;4993929;28;19941;-60
2023/02/14 07:03:37;;;;;;;;;;;;;;;1.12;100.00;100483.63;4994660;28;19929;-60
2023/02/14 07:06:02;;;;;;;;;;;;;;;1.23;100.00;100471.53;4997208;28;20082;-60
2023/02/14 07:08:28;;;;;;;;;;;;;;;1.32;100.00;100477.84;4998812;28;20229;-60
2023/02/14 07:10:56;;;;;;;;;;;;;;;1.50;100.00;100490.50;4994520;28;19944;-61
2023/02/14 07:13:22;;;;;;;;;;;;;;;1.66;100.00;100489.53;4994284;28;20200;-60
2023/02/14 07:15:47;;;;;;;;;;;;;;;1.81;100.00;100482.66;4995849;28;20337;-57
2023/02/14 07:18:13;;;;;;;;;;;;;;;1.91;100.00;100489.84;4997487;28;19949;-59
2023/02/14 07:20:38;;;;;;;;;;;;;;;2.08;100.00;100480.53;4997270;28;19953;-59
2023/02/14 07:23:04;;;;;;;;;;;;;;;2.28;100.00;100484.78;4993677;28;20344;-58
2023/02/14 07:25:29;;;;;;;;;;;;;;;2.62;100.00;100484.56;4992378;28;19962;-59
2023/02/14 07:27:54;;;;;;;;;;;;;;;2.84;100.00;100474.53;4994842;28;19970;-60
2023/02/14 07:30:20;;;;;;;;;;;;;;;3.13;100.00;100478.25;4992889;28;19968;-59
2023/02/14 07:32:45;;;;;;;;;;;;;;;3.31;100.00;100476.41;4993693;28;20430;-60
2023/02/14 07:35:11;;;;;;;;;;;;;;;3.51;100.00;100480.63;4994231;28;19955;-59
2023/02/14 07:37:37;;;;;;;;;;;;;;;3.73;100.00;100474.69;4995439;28;19946;-59
2023/02/14 07:40:03;;;;;;;;;;;;;;;3.91;100.00;100479.56;4993813;28;19940;-60
2023/02/14 07:42:28;;;;;;;;;;;;;;;4.02;100.00;100465.63;4994323;28;19941;-61
2023/02/14 07:44:54;;;;;;;;;;;;;;;4.28;100.00;100482.66;4994880;28;20456;-59
2023/02/14 07:47:19;;;;;;;;;;;;;;;4.38;100.00;100484.69;4993556;28;19947;-60
2023/02/14 07:49:45;;;;;;;;;;;;;;;4.62;100.00;100483.84;4997105;28;20047;-60
2023/02/14 07:52:10;;;;;;;;;;;;;;;4.78;100.00;100476.78;4996512;28;19944;-60
2023/02/14 07:54:37;;;;;;;;;;;;;;;4.89;100.00;100474.59;4995104;28;20464;-59
2023/02/14 07:57:03;;;;;;;;;;;;;;;5.05;100.00;100469.19;4993024;28;20009;-58
2023/02/14 07:59:29;;;;;;;;;;;;;;;5.21;100.00;100463.81;4994852;28;19943;-58
2023/02/14 08:01:54;;;;;;;;;;;;;;;5.30;100.00;100466.66;4992946;28;20399;-58
2023/02/14 08:04:20;;;;;;;;;;;;;;;5.45;100.00;100463.69;4994437;28;19944;-58
2023/02/14 08:06:46;;;;;;;;;;;;;;;5.66;100.00;100464.34;4990521;28;19949;-60
2023/02/14 08:09:23;;;;;;;;;;;;;;;5.73;100.00;100467.97;4996332;28;20082;-60
2023/02/14 08:14:36;;;;;;;;;;;;;;;5.78;100.00;100479.97;4997035;28;20377;-57
2023/02/14 08:17:02;;;;;;;;;;;;;;;5.90;100.00;100482.03;4993357;28;20615;-59
2023/02/14 08:19:28;;;;;;;;;;;;;;;6.04;100.00;100479.91;4996965;28;19938;-58
2023/02/14 08:21:53;;;;;;;;;;;;;;;6.21;100.00;100477.03;4998276;28;19941;-62
2023/02/14 08:24:19;;;;;;;;;;;;;;;6.23;100.00;100485.59;4998007;28;20014;-57
2023/02/14 08:26:44;;;;;;;;;;;;;;;6.38;100.00;100480.03;5009071;28;19944;-58
2023/02/14 08:29:10;;;;;;;;;;;;;;;6.50;100.00;100484.59;4998252;28;20533;-58
2023/02/14 08:31:36;;;;;;;;;;;;;;;6.59;100.00;100492.47;4995606;28;20259;-59
2023/02/14 08:34:05;;;;;;;;;;;;;;;6.57;100.00;100481.41;4998161;28;20061;-58
2023/02/14 08:36:30;;;;;;;;;;;;;;;6.69;100.00;100491.91;5000029;28;19966;-59
2023/02/14 08:38:56;;;;;;;;;;;;;;;6.61;100.00;100488.31;5000912;28;20408;-58
2023/02/14 08:41:21;;;;;;;;;;;;;;;6.49;100.00;100498.16;4998719;28;19950;-59
2023/02/14 08:43:47;;;;;;;;;;;;;;;6.51;100.00;100497.38;4999061;28;19971;-61
2023/02/14 08:46:13;;;;;;;;;;;;;;;6.65;100.00;100497.75;4999290;28;19954;-61
2023/02/14 08:48:40;;;;;;;;;;;;;;;6.63;100.00;100497.72;4999435;28;20660;-61
2023/02/14 08:51:06;;;;;;;;;;;;;;;6.56;100.00;100494.97;4998904;28;19949;-61
2023/02/14 08:53:31;;;;;;;;;;;;;;;6.62;100.00;100490.88;4997014;28;19953;-61
2023/02/14 08:56:00;;;;;;;;;;;;;;;6.58;100.00;100496.72;4996927;28;19996;-59
2023/02/14 08:58:26;;;;;;;;;;;;;;;6.83;100.00;100501.63;4997297;28;19945;-61
2023/02/14 09:00:52;;;;;;;;;;;;;;;6.93;100.00;100502.75;4996091;28;20494;-61
2023/02/14 09:03:17;;;;;;;;;;;;;;;7.04;100.00;100509.00;4995995;28;20044;-61
2023/02/14 09:05:42;;;;;;;;;;;;;;;7.15;100.00;100499.91;4997083;28;20091;-61
2023/02/14 09:08:08;;;;;;;;;;;;;;;7.09;100.00;100509.94;4997721;28;19990;-62
2023/02/14 09:10:33;;;;;;;;;;;;;;;7.31;100.00;100507.09;4999477;28;20303;-59
2023/02/14 09:12:59;;;;;;;;;;;;;;;7.31;100.00;100508.78;4998112;28;19997;-59
2023/02/14 09:15:24;;;;;;;;;;;;;;;7.03;100.00;100512.38;4998634;28;20028;-59
2023/02/14 09:17:50;;;;;;;;;;;;;;;7.06;100.00;100512.44;5000159;28;20262;-59
2023/02/14 09:20:16;;;;;;;;;;;;;;;6.70;100.00;100503.84;5000633;28;19954;-59
2023/02/14 09:22:42;;;;;;;;;;;;;;;6.89;100.00;100508.59;4998981;28;19946;-60
2023/02/14 09:25:08;;;;;;;;;;;;;;;7.01;100.00;100501.25;4999764;28;19970;-60
2023/02/14 09:27:33;;;;;;;;;;;;;;;6.89;100.00;100506.03;4998533;28;19941;-63
2023/02/14 09:29:59;;;;;;;;;;;;;;;6.85;100.00;100504.22;4998966;28;20007;-59
2023/02/14 09:32:25;;;;;;;;;;;;;;;6.64;100.00;100504.53;4998352;28;20010;-59
2023/02/14 09:34:51;;;;;;;;;;;;;;;6.85;100.00;100512.75;4999231;28;20523;-59
2023/02/14 09:37:16;;;;;;;;;;;;;;;7.04;100.00;100514.09;4999251;28;20358;-60
2023/02/14 09:39:42;;;;;;;;;;;;;;;6.99;100.00;100507.16;4997856;28;19952;-59
2023/02/14 09:42:10;;;;;;;;;;;;;;;6.94;100.00;100509.56;4997828;28;20370;-60
2023/02/14 09:44:41;;;;;;;;;;;;;;;7.16;100.00;100511.84;5013469;28;20397;-59
2023/02/14 09:47:26;;;;;;;;;;;;;;;6.82;100.00;100520.31;5029309;28;19947;-59
2023/02/14 09:49:53;;;;;;;;;;;;;;;6.90;100.00;100517.97;4998924;28;20005;-59
2023/02/14 09:52:20;;;;;;;;;;;;;;;6.87;100.00;100523.00;4997432;28;20051;-59
2023/02/14 09:54:50;;;;;;;;;;;;;;;7.09;100.00;100514.19;5000122;28;20032;-61
2023/02/14 09:57:33;;;;;;;;;;;;;;;7.14;100.00;100517.72;4999013;28;20400;-59
2023/02/14 09:59:58;;;;;;;;;;;;;;;7.18;100.00;100517.84;4999594;28;19951;-61
2023/02/14 10:02:39;;;;;;;;;;;;;;;6.93;100.00;100517.16;4997100;28;20207;-60
2023/02/14 10:05:09;;;;;;;;;;;;;;;6.75;100.00;100518.41;4997890;28;20308;-62
2023/02/14 10:07:40;;;;;;;;;;;;;;;6.81;100.00;100522.81;4998666;28;20001;-60
2023/02/14 10:10:12;;;;;;;;;;;;;;;6.96;100.00;100519.81;5013169;28;20352;-59
2023/02/14 10:12:51;;;;;;;;;;;;;;;6.87;100.00;100523.00;4998199;28;20454;-61
2023/02/14 10:15:26;;;;;;;;;;;;;;;7.00;100.00;100509.72;5000366;28;19926;-61
2023/02/14 10:17:57;;;;;;;;;;;;;;;6.57;100.00;100517.06;4997493;28;19975;-61
2023/02/14 10:20:34;;;;;;;;;;;;;;;6.65;100.00;100524.09;4997744;28;19955;-61
2023/02/14 10:23:03;;;;;;;;;;;;;;;6.55;100.00;100527.22;4998413;28;19939;-61
2023/02/14 10:25:34;;;;;;;;;;;;;;;6.44;100.00;100528.63;4995605;28;19988;-61
2023/02/14 10:28:00;;;;;;;;;;;;;;;6.55;100.00;100527.22;4996892;28;20440;-61
2023/02/14 10:30:26;;;;;;;;;;;;;;;6.63;100.00;100520.63;4998074;28;19989;-61
2023/02/14 10:33:01;;;;;;;;;;;;;;;6.23;100.00;100531.44;4997482;28;20087;-60
2023/02/14 10:35:32;;;;;;;;;;;;;;;6.05;100.00;100514.72;4999721;28;20452;-60
2023/02/14 10:38:16;;;;;;;;;;;;;;;6.16;100.00;100519.31;4995111;28;20478;-60
2023/02/14 10:41:01;;;;;;;;;;;;;;;6.02;100.00;100515.53;5009064;28;19949;-60
2023/02/14 10:43:44;;;;;;;;;;;;;;;6.05;100.00;100515.59;4998369;28;20432;-61
2023/02/14 10:46:16;;;;;;;;;;;;;;;5.95;100.00;100518.69;4996950;28;19931;-60
2023/02/14 10:48:56;;;;;;;;;;;;;;;6.03;100.00;100512.13;4992932;28;19938;-60
2023/02/14 10:51:29;;;;;;;;;;;;;;;5.87;100.00;100512.50;4995376;28;20354;-60
2023/02/14 10:54:04;;;;;;;;;;;;;;;5.81;100.00;100510.59;5029413;28;19966;-63
2023/02/14 10:56:45;;;;;;;;;;;;;;;5.95;100.00;100506.81;4998478;28;19943;-60
2023/02/14 10:59:20;;;;;;;;;;;;;;;6.00;100.00;100506.09;4997299;28;19960;-59
2023/02/14 11:01:47;;;;;;;;;;;;;;;6.19;100.00;100508.38;4997046;28;19944;-60
2023/02/14 11:04:15;;;;;;;;;;;;;;;6.25;100.00;100504.31;4998698;28;20405;-59
2023/02/14 11:06:41;;;;;;;;;;;;;;;6.14;100.00;100495.50;5029593;28;19943;-61
2023/02/14 11:09:08;;;;;;;;;;;;;;;6.29;100.00;100500.16;5012086;28;19948;-60
2023/02/14 11:11:39;;;;;;;;;;;;;;;6.46;100.00;100490.44;4999215;28;19945;-61
2023/02/14 11:14:23;;;;;;;;;;;;;;;6.68;100.00;100492.72;4999557;28;20601;-60
2023/02/14 11:16:53;;;;;;;;;;;;;;;6.78;100.00;100480.28;4996343;28;19981;-61
2023/02/14 11:19:20;;;;;;;;;;;;;;;6.81;100.00;100480.34;5029308;28;19994;-60
2023/02/14 11:21:47;;;;;;;;;;;;;;;6.71;100.00;100468.19;4997926;28;19961;-61
2023/02/14 11:24:24;;;;;;;;;;;;;;;7.03;100.00;100463.03;5001735;28;19925;-61
2023/02/14 11:26:51;;;;;;;;;;;;;;;7.22;100.00;100462.66;4999130;28;19945;-61
2023/02/14 11:29:25;;;;;;;;;;;;;;;7.15;100.00;100463.34;4998395;28;20016;-62
2023/02/14 11:31:51;;;;;;;;;;;;;;;6.87;100.00;100466.91;4999132;28;20013;-62
2023/02/14 11:34:19;;;;;;;;;;;;;;;7.04;100.00;100468.19;4997616;28;19938;-70
2023/02/14 11:36:45;;;;;;;;;;;;;;;7.05;100.00;100459.69;5027952;28;20691;-58
2023/02/14 11:39:23;;;;;;;;;;;;;;;6.88;100.00;100451.63;4997195;28;19991;-59
2023/02/14 11:41:51;;;;;;;;;;;;;;;6.74;100.00;100464.88;4996661;28;19929;-59
2023/02/14 11:44:21;;;;;;;;;;;;;;;6.70;100.00;100452.88;4997287;28;19971;-61
2023/02/14 11:46:48;;;;;;;;;;;;;;;6.93;100.00;100451.75;5028645;28;20385;-59
2023/02/14 11:49:27;;;;;;;;;;;;;;;6.83;100.00;100449.81;4999046;28;19947;-60
2023/02/14 11:51:53;;;;;;;;;;;;;;;6.81;100.00;100454.88;4996998;28;20402;-58
2023/02/14 11:54:28;;;;;;;;;;;;;;;7.00;100.00;100447.69;4993145;28;19970;-59
2023/02/14 11:56:54;;;;;;;;;;;;;;;6.82;100.00;100448.94;4997359;28;20517;-61
2023/02/14 11:59:24;;;;;;;;;;;;;;;6.77;100.00;100442.88;4996426;28;19946;-59
2023/02/14 12:01:50;;;;;;;;;;;;;;;6.71;100.00;100439.28;4996528;28;19944;-59
2023/02/14 12:04:23;;;;;;;;;;;;;;;6.63;100.00;100445.88;5000472;28;20652;-60
2023/02/14 12:06:49;;;;;;;;;;;;;;;6.64;100.00;100445.94;5001595;28;19940;-60
2023/02/14 12:09:21;;;;;;;;;;;;;;;6.56;100.00;100446.53;5001019;28;19952;-59
2023/02/14 12:11:54;;;;;;;;;;;;;;;6.84;100.00;100436.22;5000930;28;20001;-59
2023/02/14 12:14:20;;;;;;;;;;;;;;;6.86;100.00;100439.69;5001997;28;19925;-59
2023/02/14 12:17:06;;;;;;;;;;;;;;;6.85;100.00;100435.41;5000851;28;19942;-60
2023/02/14 12:19:37;;;;;;;;;;;;;;;6.96;100.00;100425.47;5001387;28;19939;-60
2023/02/14 12:22:04;;;;;;;;;;;;;;;6.93;100.00;100423.69;5003786;28;19941;-59
2023/02/14 12:24:33;;;;;;;;;;;;;;;6.70;100.00;100419.75;5000908;28;19941;-59
2023/02/14 12:27:13;;;;;;;;;;;;;;;6.71;100.00;100424.00;5000593;28;19943;-59
2023/02/14 12:29:42;;;;;;;;;;;;;;;6.81;100.00;100416.63;5032181;28;19943;-59
2023/02/14 12:32:20;;;;;;;;;;;;;;;6.81;100.00;100424.28;5000289;28;19996;-59
2023/02/14 12:34:46;;;;;;;;;;;;;;;6.65;100.00;100411.13;4999609;28;19940;-59
2023/02/14 12:37:30;;;;;;;;;;;;;;;6.53;100.00;100404.03;5000552;28;19932;-58
2023/02/14 12:40:19;;;;;;;;;;;;;;;6.44;100.00;100408.88;5001165;28;19968;-61
2023/02/14 12:42:54;;;;;;;;;;;;;;;6.76;100.00;100408.00;5000798;28;19962;-60
2023/02/14 12:45:28;;;;;;;;;;;;;;;6.62;100.00;100400.84;5000888;28;19944;-62
2023/02/14 12:48:00;;;;;;;;;;;;;;;6.58;100.00;100404.97;4999712;28;19942;-61
2023/02/14 12:50:36;;;;;;;;;;;;;;;6.39;100.00;100405.34;4998933;28;19950;-61
2023/02/14 12:53:01;;;;;;;;;;;;;;;6.36;100.00;100397.63;4999742;28;20627;-61
2023/02/14 12:55:27;;;;;;;;;;;;;;;6.21;100.00;100402.31;4997824;28;19942;-60
2023/02/14 12:58:04;;;;;;;;;;;;;;;6.27;100.00;100407.56;4995573;28;19937;-60
2023/02/14 13:00:51;;;;;;;;;;;;;;;6.27;100.00;100400.81;4997771;28;20359;-60